Time;durP1;ratioP1;P1;durP2;ratioP2;P2;SDS_P1;SDS_P2;PMS_P1;PMS_P2;Temp;Humidity;BMP_temperature;BMP_pressure;BME280_temperature;BME280_humidity;BME280_pressure;Samples;Min_cycle;Max_cycle;Signal;HPM_P1;HPM_P2
2022/04/25 00:00:55;;;;;;;17.17;8.25;;;;;;;;;;5083050;28;20262;-66
2022/04/25 00:03:20;;;;;;;14.27;8.95;;;;;;;;;;5085893;28;20184;-67
2022/04/25 00:05:46;;;;;;;15.98;9.45;;;;;;;;;;5084379;28;20743;-66
2022/04/25 00:08:11;;;;;;;15.15;9.25;;;;;;;;;;5084187;28;20667;-66
2022/04/25 00:10:37;;;;;;;18.05;9.32;;;;;;;;;;5084960;28;20190;-65
2022/04/25 00:13:02;;;;;;;15.27;9.45;;;;;;;;;;5087431;28;20601;-66
2022/04/25 00:15:28;;;;;;;15.80;8.90;;;;;;;;;;5084129;28;20179;-65
2022/04/25 00:17:54;;;;;;;16.80;9.90;;;;;;;;;;5081733;28;20192;-66
2022/04/25 00:20:19;;;;;;;17.92;9.50;;;;;;;;;;5087083;28;20309;-66
2022/04/25 00:22:46;;;;;;;15.15;10.02;;;;;;;;;;5087849;28;20180;-67
2022/04/25 00:25:12;;;;;;;15.40;10.07;;;;;;;;;;5083736;28;20475;-66
2022/04/25 00:27:38;;;;;;;16.98;9.93;;;;;;;;;;5087194;28;20208;-66
2022/04/25 00:30:04;;;;;;;15.57;9.75;;;;;;;;;;5081689;28;20225;-66
2022/04/25 00:32:29;;;;;;;20.38;11.65;;;;;;;;;;5086813;28;20198;-68
2022/04/25 00:34:54;;;;;;;22.02;11.90;;;;;;;;;;5086509;28;20180;-75
2022/04/25 00:37:20;;;;;;;22.15;11.73;;;;;;;;;;5087630;28;20172;-78
2022/04/25 00:39:45;;;;;;;23.92;14.07;;;;;;;;;;5089232;28;20188;-78
2022/04/25 00:42:10;;;;;;;23.27;13.85;;;;;;;;;;5082115;28;20188;-76
2022/04/25 00:44:37;;;;;;;23.20;13.45;;;;;;;;;;5078995;28;20179;-77
2022/04/25 00:47:04;;;;;;;23.10;13.93;;;;;;;;;;5078098;28;20207;-77
2022/04/25 00:49:30;;;;;;;24.90;14.95;;;;;;;;;;5078839;28;20648;-75
2022/04/25 00:51:56;;;;;;;24.02;15.70;;;;;;;;;;5087087;28;20234;-73
2022/04/25 00:54:22;;;;;;;25.67;14.93;;;;;;;;;;5083492;28;20184;-74
2022/04/25 00:56:48;;;;;;;27.02;16.15;;;;;;;;;;5084491;28;20204;-73
2022/04/25 00:59:18;;;;;;;25.88;15.55;;;;;;;;;;5080273;28;20183;-75
2022/04/25 01:01:45;;;;;;;32.25;15.65;;;;;;;;;;5085382;28;20523;-75
2022/04/25 01:04:11;;;;;;;25.08;16.15;;;;;;;;;;5084028;28;20196;-74
2022/04/25 01:06:37;;;;;;;28.50;17.13;;;;;;;;;;5083674;28;20769;-74
2022/04/25 01:09:03;;;;;;;24.67;15.68;;;;;;;;;;5077840;28;20264;-73
2022/04/25 01:11:29;;;;;;;25.92;16.40;;;;;;;;;;5083918;28;20184;-73
2022/04/25 01:13:54;;;;;;;25.25;15.80;;;;;;;;;;5087558;28;20263;-73
2022/04/25 01:16:20;;;;;;;27.05;16.35;;;;;;;;;;5082953;28;20176;-72
2022/04/25 01:18:46;;;;;;;25.73;16.40;;;;;;;;;;5086524;28;20181;-72
2022/04/25 01:21:13;;;;;;;23.77;15.23;;;;;;;;;;5069884;28;20215;-71
2022/04/25 01:29:08;;;;;;;24.05;14.60;;;;;;;;;;5084122;28;20648;-70
2022/04/25 01:31:34;;;;;;;27.90;15.20;;;;;;;;;;5084974;28;20204;-70
2022/04/25 01:33:59;;;;;;;26.65;15.52;;;;;;;;;;5086368;28;20233;-71
2022/04/25 01:36:24;;;;;;;23.80;15.45;;;;;;;;;;5086170;28;20176;-71
2022/04/25 01:38:51;;;;;;;26.88;16.35;;;;;;;;;;5085989;28;20180;-71
2022/04/25 01:41:16;;;;;;;28.10;16.88;;;;;;;;;;5086345;28;20643;-69
2022/04/25 01:43:42;;;;;;;26.42;15.75;;;;;;;;;;5085025;28;20188;-69
2022/04/25 01:46:07;;;;;;;29.08;17.92;;;;;;;;;;5084479;28;20253;-69
2022/04/25 01:48:32;;;;;;;29.63;17.48;;;;;;;;;;5084386;28;20184;-69
2022/04/25 01:50:58;;;;;;;29.27;18.05;;;;;;;;;;5082673;28;20540;-68
2022/04/25 01:53:23;;;;;;;30.23;17.75;;;;;;;;;;5078932;28;20557;-69
2022/04/25 01:55:48;;;;;;;28.25;17.45;;;;;;;;;;5085816;28;20593;-69
2022/04/25 01:58:14;;;;;;;33.25;19.08;;;;;;;;;;5084500;28;20196;-70
2022/04/25 02:00:39;;;;;;;30.50;18.52;;;;;;;;;;5081420;28;20181;-69
2022/04/25 02:03:05;;;;;;;30.80;19.85;;;;;;;;;;5083932;28;20503;-68
2022/04/25 02:05:31;;;;;;;30.88;19.25;;;;;;;;;;5082156;28;20215;-69
2022/04/25 02:07:56;;;;;;;34.58;20.40;;;;;;;;;;5078528;28;20278;-69
2022/04/25 02:10:21;;;;;;;35.92;20.58;;;;;;;;;;5081460;28;20233;-68
2022/04/25 02:12:46;;;;;;;34.67;20.13;;;;;;;;;;5086846;28;20176;-68
2022/04/25 02:15:13;;;;;;;33.95;21.08;;;;;;;;;;5086498;28;20176;-68
2022/04/25 02:17:39;;;;;;;32.65;20.40;;;;;;;;;;5086911;28;20268;-69
2022/04/25 02:20:05;;;;;;;38.35;23.73;;;;;;;;;;5086465;28;20183;-69
2022/04/25 02:22:34;;;;;;;39.67;23.30;;;;;;;;;;5086078;28;20180;-68
2022/04/25 02:25:00;;;;;;;34.13;21.58;;;;;;;;;;5079358;28;20169;-69
2022/04/25 02:27:25;;;;;;;38.90;22.90;;;;;;;;;;5078504;28;20620;-68
2022/04/25 02:29:53;;;;;;;40.27;24.13;;;;;;;;;;5077070;28;20191;-68
2022/04/25 02:32:19;;;;;;;39.80;23.08;;;;;;;;;;5081485;28;20278;-68
2022/04/25 02:34:44;;;;;;;38.77;23.87;;;;;;;;;;5085327;28;20270;-68
2022/04/25 02:37:09;;;;;;;35.10;22.63;;;;;;;;;;5080033;28;20215;-68
2022/04/25 02:39:35;;;;;;;35.35;22.27;;;;;;;;;;5083693;28;20176;-67
2022/04/25 02:42:00;;;;;;;39.40;22.73;;;;;;;;;;5078294;28;20180;-67
2022/04/25 02:44:25;;;;;;;36.58;22.40;;;;;;;;;;5085633;28;20248;-68
2022/04/25 02:46:51;;;;;;;39.25;22.98;;;;;;;;;;5070228;28;20227;-68
2022/04/25 02:49:16;;;;;;;38.00;23.55;;;;;;;;;;5074201;28;20203;-68
2022/04/25 02:51:42;;;;;;;36.65;22.38;;;;;;;;;;5086018;28;20603;-68
2022/04/25 02:54:07;;;;;;;36.97;22.98;;;;;;;;;;5086756;28;20188;-68
2022/04/25 02:56:33;;;;;;;38.38;22.00;;;;;;;;;;5084613;28;20215;-68
2022/04/25 02:58:58;;;;;;;40.75;22.70;;;;;;;;;;5085121;28;20191;-68
2022/04/25 03:01:23;;;;;;;37.67;22.65;;;;;;;;;;5086557;28;20192;-68
2022/04/25 03:03:49;;;;;;;37.33;22.30;;;;;;;;;;5075845;28;20552;-68
2022/04/25 03:06:14;;;;;;;35.90;21.55;;;;;;;;;;5085638;28;20726;-68
2022/04/25 03:08:40;;;;;;;38.95;23.13;;;;;;;;;;5080674;28;20188;-68
2022/04/25 03:11:10;;;;;;;40.83;23.48;;;;;;;;;;5080494;28;20670;-68
2022/04/25 03:13:38;;;;;;;37.65;22.92;;;;;;;;;;5080465;28;20188;-69
2022/04/25 03:16:05;;;;;;;38.13;22.75;;;;;;;;;;5085520;28;20180;-68
2022/04/25 03:18:30;;;;;;;34.88;22.25;;;;;;;;;;5091371;28;20188;-68
2022/04/25 03:20:56;;;;;;;37.22;23.00;;;;;;;;;;5080082;28;20639;-67
2022/04/25 03:23:22;;;;;;;35.55;22.20;;;;;;;;;;5090747;28;20191;-68
2022/04/25 03:25:49;;;;;;;37.92;21.60;;;;;;;;;;5085464;28;20311;-66
2022/04/25 03:28:16;;;;;;;35.78;23.25;;;;;;;;;;5086971;28;20210;-69
2022/04/25 03:30:41;;;;;;;34.88;22.45;;;;;;;;;;5084311;28;20913;-68
2022/04/25 03:33:10;;;;;;;38.88;23.27;;;;;;;;;;5084314;28;20268;-68
2022/04/25 03:35:36;;;;;;;39.53;23.55;;;;;;;;;;5090327;28;20202;-68
2022/04/25 03:38:02;;;;;;;39.72;24.00;;;;;;;;;;5080771;28;20194;-67
2022/04/25 03:40:27;;;;;;;40.17;23.95;;;;;;;;;;5090630;28;20180;-67
2022/04/25 03:42:55;;;;;;;40.60;25.08;;;;;;;;;;5088456;28;20184;-67
2022/04/25 03:45:21;;;;;;;41.28;25.15;;;;;;;;;;5087067;28;20192;-67
2022/04/25 03:47:47;;;;;;;42.25;24.77;;;;;;;;;;5086085;28;20199;-67
2022/04/25 03:50:15;;;;;;;45.05;25.92;;;;;;;;;;5090062;28;20307;-67
2022/04/25 03:52:43;;;;;;;47.00;25.58;;;;;;;;;;5084507;28;20184;-67
2022/04/25 03:57:58;;;;;;;48.55;27.65;;;;;;;;;;5090146;28;20253;-67
2022/04/25 04:00:24;;;;;;;44.70;26.30;;;;;;;;;;5087761;28;20539;-68
2022/04/25 04:02:49;;;;;;;48.10;28.20;;;;;;;;;;5084724;28;20188;-68
2022/04/25 04:05:14;;;;;;;55.72;31.20;;;;;;;;;;5085859;28;20613;-67
2022/04/25 04:07:41;;;;;;;55.70;31.13;;;;;;;;;;5082859;28;20312;-67
2022/04/25 04:10:07;;;;;;;55.10;31.90;;;;;;;;;;5089704;28;20191;-67
2022/04/25 04:12:34;;;;;;;54.75;31.52;;;;;;;;;;5087592;28;20555;-67
2022/04/25 04:15:02;;;;;;;57.70;32.45;;;;;;;;;;5088541;28;20192;-67
2022/04/25 04:17:28;;;;;;;51.47;31.35;;;;;;;;;;5080511;28;22806;-67
2022/04/25 04:19:54;;;;;;;49.88;29.02;;;;;;;;;;5087611;28;20625;-67
2022/04/25 04:22:22;;;;;;;50.58;28.55;;;;;;;;;;5087132;28;20240;-67
2022/04/25 04:24:49;;;;;;;49.90;27.38;;;;;;;;;;5087742;28;20214;-67
2022/04/25 04:27:15;;;;;;;45.60;25.67;;;;;;;;;;5083154;28;20238;-67
2022/04/25 04:29:41;;;;;;;47.88;26.02;;;;;;;;;;5083274;28;20708;-67
2022/04/25 04:32:07;;;;;;;45.10;25.17;;;;;;;;;;5086915;28;20207;-67
2022/04/25 04:34:36;;;;;;;46.17;25.20;;;;;;;;;;5088495;28;20176;-67
2022/04/25 04:37:03;;;;;;;38.80;23.45;;;;;;;;;;5085153;28;20215;-67
2022/04/25 04:39:28;;;;;;;42.42;24.58;;;;;;;;;;5084401;28;20192;-67
2022/04/25 04:41:54;;;;;;;40.97;23.30;;;;;;;;;;5087802;28;20378;-66
2022/04/25 04:44:19;;;;;;;38.90;22.17;;;;;;;;;;5086603;28;20192;-67
2022/04/25 04:46:45;;;;;;;38.13;21.47;;;;;;;;;;5085271;28;20212;-67
2022/04/25 04:49:10;;;;;;;38.88;22.52;;;;;;;;;;5084796;28;20423;-68
2022/04/25 04:51:36;;;;;;;39.43;21.90;;;;;;;;;;5080640;28;20188;-68
2022/04/25 04:54:02;;;;;;;35.22;19.85;;;;;;;;;;5088394;28;20191;-68
2022/04/25 04:56:29;;;;;;;41.20;21.08;;;;;;;;;;5086102;28;20172;-68
2022/04/25 04:58:55;;;;;;;38.40;20.77;;;;;;;;;;5086064;28;20238;-68
2022/04/25 05:01:20;;;;;;;36.60;20.17;;;;;;;;;;5082995;28;20192;-68
2022/04/25 05:03:46;;;;;;;38.17;20.53;;;;;;;;;;5083418;28;20595;-68
2022/04/25 05:06:12;;;;;;;38.73;20.17;;;;;;;;;;5084789;28;20460;-68
2022/04/25 05:08:38;;;;;;;37.23;21.10;;;;;;;;;;5087271;28;20204;-68
2022/04/25 05:11:04;;;;;;;36.03;20.03;;;;;;;;;;5081700;28;20454;-68
2022/04/25 05:13:31;;;;;;;39.40;20.47;;;;;;;;;;5085446;28;20596;-68
2022/04/25 05:15:56;;;;;;;41.40;21.75;;;;;;;;;;5082228;28;20191;-67
2022/04/25 05:18:22;;;;;;;38.58;20.10;;;;;;;;;;5083829;28;20655;-68
2022/04/25 05:20:47;;;;;;;35.60;19.60;;;;;;;;;;5075020;28;20253;-67
2022/04/25 05:23:13;;;;;;;37.78;19.92;;;;;;;;;;5081268;28;20233;-69
2022/04/25 05:25:38;;;;;;;38.13;20.33;;;;;;;;;;5079814;28;20199;-66
2022/04/25 05:28:05;;;;;;;34.77;20.20;;;;;;;;;;5082484;28;20177;-67
2022/04/25 05:30:31;;;;;;;38.87;21.17;;;;;;;;;;5085357;28;20298;-68
2022/04/25 05:32:58;;;;;;;40.07;19.53;;;;;;;;;;5082769;28;20642;-67
2022/04/25 05:35:26;;;;;;;40.53;20.48;;;;;;;;;;5085724;28;20183;-67
2022/04/25 05:37:51;;;;;;;41.78;20.85;;;;;;;;;;5080838;28;20296;-67
2022/04/25 05:40:18;;;;;;;43.80;21.33;;;;;;;;;;5071722;28;20670;-68
2022/04/25 05:42:44;;;;;;;41.72;20.73;;;;;;;;;;5081934;28;20635;-67
2022/04/25 05:45:14;;;;;;;41.93;22.63;;;;;;;;;;5083087;28;20215;-67
2022/04/25 05:47:41;;;;;;;42.67;22.43;;;;;;;;;;5083126;28;20204;-67
2022/04/25 05:52:52;;;;;;;42.60;21.60;;;;;;;;;;5078915;28;20223;-68
2022/04/25 05:55:17;;;;;;;44.23;22.30;;;;;;;;;;5086281;28;20615;-69
2022/04/25 05:57:43;;;;;;;48.57;22.87;;;;;;;;;;5084727;28;20644;-68
2022/04/25 06:00:11;;;;;;;47.55;22.92;;;;;;;;;;5086233;28;20186;-69
2022/04/25 06:02:40;;;;;;;50.50;23.70;;;;;;;;;;5084649;28;20277;-68
2022/04/25 06:05:06;;;;;;;50.47;23.30;;;;;;;;;;5084143;28;20279;-68
2022/04/25 06:07:36;;;;;;;43.72;22.83;;;;;;;;;;5085208;28;20219;-68
2022/04/25 06:10:03;;;;;;;50.80;23.02;;;;;;;;;;5086689;28;20172;-68
2022/04/25 06:12:29;;;;;;;52.23;22.43;;;;;;;;;;5086325;28;20681;-68
2022/04/25 06:15:00;;;;;;;48.43;23.93;;;;;;;;;;5085831;28;20258;-68
2022/04/25 06:17:26;;;;;;;44.23;21.90;;;;;;;;;;5083025;28;20263;-68
2022/04/25 06:19:51;;;;;;;40.67;21.17;;;;;;;;;;5087117;28;20695;-68
2022/04/25 06:22:18;;;;;;;43.83;22.58;;;;;;;;;;5076892;28;20389;-68
2022/04/25 06:24:44;;;;;;;42.03;23.02;;;;;;;;;;5087164;28;20203;-68
2022/04/25 06:27:09;;;;;;;46.00;21.60;;;;;;;;;;5082443;28;20199;-68
2022/04/25 06:29:35;;;;;;;39.93;21.07;;;;;;;;;;5086520;28;20511;-68
2022/04/25 06:32:03;;;;;;;39.17;21.67;;;;;;;;;;5078263;28;20203;-68
2022/04/25 06:34:28;;;;;;;41.75;21.02;;;;;;;;;;5083480;28;20180;-68
2022/04/25 06:36:53;;;;;;;41.13;21.17;;;;;;;;;;5080694;28;20554;-68
2022/04/25 06:39:19;;;;;;;39.97;22.10;;;;;;;;;;5082521;28;20192;-68
2022/04/25 06:41:46;;;;;;;39.07;20.73;;;;;;;;;;5085112;28;20196;-68
2022/04/25 06:44:12;;;;;;;41.47;21.87;;;;;;;;;;5085820;28;20180;-68
2022/04/25 06:46:37;;;;;;;38.23;20.87;;;;;;;;;;5085509;28;20200;-68
2022/04/25 06:49:21;;;;;;;44.25;20.73;;;;;;;;;;5087920;28;20176;-67
2022/04/25 06:51:47;;;;;;;39.40;19.02;;;;;;;;;;5089487;28;20190;-67
2022/04/25 06:54:13;;;;;;;37.47;19.95;;;;;;;;;;5090486;28;20722;-67
2022/04/25 06:56:39;;;;;;;40.13;20.43;;;;;;;;;;5085131;28;20608;-67
2022/04/25 06:59:05;;;;;;;42.50;20.33;;;;;;;;;;5084584;28;20504;-68
2022/04/25 07:01:30;;;;;;;37.70;19.33;;;;;;;;;;5089809;28;20207;-67
2022/04/25 07:03:55;;;;;;;30.60;18.63;;;;;;;;;;5090276;28;20195;-67
2022/04/25 07:06:21;;;;;;;40.70;20.65;;;;;;;;;;5086425;28;20228;-67
2022/04/25 07:08:46;;;;;;;38.22;19.95;;;;;;;;;;5086980;28;20176;-67
2022/04/25 07:11:11;;;;;;;32.23;17.87;;;;;;;;;;5089649;28;20465;-67
2022/04/25 07:13:37;;;;;;;31.43;18.43;;;;;;;;;;5086089;28;20206;-67
2022/04/25 07:16:02;;;;;;;38.03;18.47;;;;;;;;;;5088694;28;20290;-67
2022/04/25 07:18:29;;;;;;;34.90;18.97;;;;;;;;;;5089040;28;20184;-67
2022/04/25 07:20:55;;;;;;;36.85;18.00;;;;;;;;;;5089353;28;20659;-67
2022/04/25 07:28:51;;;;;;;34.50;18.17;;;;;;;;;;5083143;28;20190;-67
2022/04/25 07:31:17;;;;;;;34.53;17.90;;;;;;;;;;5089653;28;20200;-67
2022/04/25 07:33:43;;;;;;;34.90;18.50;;;;;;;;;;5083619;28;20241;-66
2022/04/25 07:36:14;;;;;;;34.50;17.70;;;;;;;;;;5089045;28;20211;-67
2022/04/25 07:38:39;;;;;;;33.80;17.73;;;;;;;;;;5082745;28;20176;-67
2022/04/25 07:41:06;;;;;;;30.27;17.30;;;;;;;;;;5085120;28;20543;-69
2022/04/25 07:43:31;;;;;;;30.37;17.63;;;;;;;;;;5088063;28;20180;-68
2022/04/25 07:45:57;;;;;;;31.42;17.25;;;;;;;;;;5089932;28;20196;-68
2022/04/25 07:48:22;;;;;;;28.57;16.63;;;;;;;;;;5083362;28;20678;-68
2022/04/25 07:50:48;;;;;;;31.73;17.13;;;;;;;;;;5084651;28;20208;-67
2022/04/25 07:53:14;;;;;;;26.47;16.30;;;;;;;;;;5081367;28;20245;-67
2022/04/25 07:55:39;;;;;;;32.80;16.58;;;;;;;;;;5088687;28;20259;-68
2022/04/25 07:58:07;;;;;;;32.05;17.83;;;;;;;;;;5084842;28;20188;-72
2022/04/25 08:00:33;;;;;;;31.85;17.95;;;;;;;;;;5085711;28;20215;-74
2022/04/25 08:02:58;;;;;;;34.30;17.57;;;;;;;;;;5085770;28;20623;-74
2022/04/25 08:05:24;;;;;;;32.87;17.20;;;;;;;;;;5089184;28;20192;-74
2022/04/25 08:07:49;;;;;;;35.30;18.53;;;;;;;;;;5086464;28;20204;-72
2022/04/25 08:10:14;;;;;;;30.05;17.00;;;;;;;;;;5088854;28;20195;-71
2022/04/25 08:18:08;;;;;;;28.33;15.57;;;;;;;;;;5084088;28;20238;-71
2022/04/25 08:20:35;;;;;;;28.17;16.67;;;;;;;;;;5086122;28;20180;-71
2022/04/25 08:23:05;;;;;;;27.17;15.03;;;;;;;;;;5087466;28;20180;-70
2022/04/25 08:25:31;;;;;;;34.97;17.10;;;;;;;;;;5101965;28;20172;-70
2022/04/25 08:28:00;;;;;;;27.13;15.73;;;;;;;;;;5087990;28;20208;-69
2022/04/25 08:30:26;;;;;;;28.20;14.20;;;;;;;;;;5086629;28;20184;-69
2022/04/25 08:32:54;;;;;;;24.37;15.00;;;;;;;;;;5080681;28;20678;-69
2022/04/25 08:35:21;;;;;;;27.23;14.17;;;;;;;;;;5082022;28;20786;-69
2022/04/25 08:37:46;;;;;;;26.57;14.60;;;;;;;;;;5075526;28;20196;-70
2022/04/25 08:40:11;;;;;;;21.88;13.73;;;;;;;;;;5088914;28;20276;-69
2022/04/25 08:42:37;;;;;;;22.75;14.07;;;;;;;;;;5085627;28;20181;-68
2022/04/25 08:45:07;;;;;;;25.13;13.88;;;;;;;;;;5088141;28;20184;-69
2022/04/25 08:47:55;;;;;;;21.30;12.40;;;;;;;;;;5079798;28;20204;-69
2022/04/25 08:50:22;;;;;;;22.37;12.67;;;;;;;;;;5087658;28;20546;-68
2022/04/25 08:52:48;;;;;;;24.33;13.13;;;;;;;;;;5083730;28;20717;-67
2022/04/25 08:55:15;;;;;;;22.63;13.50;;;;;;;;;;5087562;28;20256;-67
2022/04/25 08:57:43;;;;;;;22.27;12.65;;;;;;;;;;5088600;28;20394;-68
2022/04/25 09:00:09;;;;;;;20.47;12.97;;;;;;;;;;5083284;28;20230;-67
2022/04/25 09:02:40;;;;;;;22.07;12.57;;;;;;;;;;5085251;28;20176;-68
2022/04/25 09:05:09;;;;;;;20.25;12.55;;;;;;;;;;5082127;28;20205;-67
2022/04/25 09:07:37;;;;;;;19.17;12.03;;;;;;;;;;5083094;28;20240;-67
2022/04/25 09:10:10;;;;;;;26.23;12.95;;;;;;;;;;5081927;28;20208;-67
2022/04/25 09:12:41;;;;;;;24.25;12.85;;;;;;;;;;5083279;28;20213;-68
2022/04/25 09:15:08;;;;;;;20.48;12.68;;;;;;;;;;5075924;28;20259;-68
2022/04/25 09:17:34;;;;;;;24.90;13.38;;;;;;;;;;5083690;28;20267;-67
2022/04/25 09:20:00;;;;;;;23.02;13.57;;;;;;;;;;5088381;28;20176;-67
2022/04/25 09:22:33;;;;;;;21.80;12.68;;;;;;;;;;5086240;28;20183;-67
2022/04/25 09:25:10;;;;;;;23.73;13.52;;;;;;;;;;5073543;28;20585;-67
2022/04/25 09:27:36;;;;;;;25.13;14.03;;;;;;;;;;5082376;28;20203;-67
2022/04/25 09:30:13;;;;;;;21.85;13.45;;;;;;;;;;5081622;28;20202;-68
2022/04/25 09:32:38;;;;;;;21.73;13.43;;;;;;;;;;5085108;28;20552;-68
2022/04/25 09:35:30;;;;;;;23.60;13.17;;;;;;;;;;5087662;28;20184;-68
2022/04/25 09:37:57;;;;;;;26.50;13.47;;;;;;;;;;5081694;28;20279;-67
2022/04/25 09:40:24;;;;;;;27.37;13.27;;;;;;;;;;5084896;28;20180;-66
2022/04/25 09:43:15;;;;;;;24.30;13.63;;;;;;;;;;5085413;28;20616;-66
2022/04/25 09:45:44;;;;;;;29.40;14.52;;;;;;;;;;5086657;28;20259;-67
2022/04/25 09:48:16;;;;;;;27.80;13.83;;;;;;;;;;5082948;28;20183;-67
2022/04/25 09:50:42;;;;;;;27.30;15.17;;;;;;;;;;5079240;28;20184;-67
2022/04/25 09:53:09;;;;;;;24.38;13.88;;;;;;;;;;5082945;28;20559;-67
2022/04/25 09:55:37;;;;;;;25.48;13.27;;;;;;;;;;5085954;28;20639;-67
2022/04/25 09:58:20;;;;;;;29.83;13.87;;;;;;;;;;5087549;28;20176;-67
2022/04/25 10:00:47;;;;;;;27.27;13.95;;;;;;;;;;5084964;28;20183;-67
2022/04/25 10:03:15;;;;;;;25.17;13.83;;;;;;;;;;5083069;28;20385;-67
2022/04/25 10:05:45;;;;;;;25.25;14.32;;;;;;;;;;5082167;28;20238;-67
2022/04/25 10:08:13;;;;;;;29.10;13.83;;;;;;;;;;5084764;28;20199;-67
2022/04/25 10:10:47;;;;;;;24.50;13.80;;;;;;;;;;5085294;28;20176;-67
2022/04/25 10:13:13;;;;;;;26.30;14.48;;;;;;;;;;5082247;28;20594;-67
2022/04/25 10:15:40;;;;;;;29.83;14.77;;;;;;;;;;5084266;28;20180;-67
2022/04/25 10:18:06;;;;;;;26.17;16.03;;;;;;;;;;5078375;28;20181;-67
2022/04/25 10:20:37;;;;;;;32.10;15.65;;;;;;;;;;5082954;28;20640;-67
2022/04/25 10:23:09;;;;;;;26.75;16.33;;;;;;;;;;5087523;28;20187;-67
2022/04/25 10:25:36;;;;;;;26.83;15.57;;;;;;;;;;5081300;28;20185;-68
2022/04/25 10:28:05;;;;;;;25.23;16.05;;;;;;;;;;5083117;28;20212;-68
2022/04/25 10:30:35;;;;;;;26.33;16.23;;;;;;;;;;5085537;28;20184;-68
2022/04/25 10:33:18;;;;;;;27.27;15.82;;;;;;;;;;5085254;28;20681;-67
2022/04/25 10:35:46;;;;;;;26.25;15.63;;;;;;;;;;5083404;28;20189;-68
2022/04/25 10:38:47;;;;;;;29.25;16.85;;;;;;;;;;5083206;28;20351;-67
2022/04/25 10:44:16;;;;;;;29.13;15.88;;;;;;;;;;5079601;28;20206;-68
2022/04/25 10:47:07;;;;;;;24.58;15.38;;;;;;;;;;5089165;28;20287;-67
2022/04/25 10:49:37;;;;;;;25.52;15.48;;;;;;;;;;5087108;28;20687;-68
2022/04/25 10:52:42;;;;;;;26.23;15.10;;;;;;;;;;5083556;28;20184;-67
2022/04/25 10:55:19;;;;;;;27.55;13.95;;;;;;;;;;5085330;28;20528;-67
2022/04/25 10:58:03;;;;;;;22.42;13.25;;;;;;;;;;5087635;28;20203;-68
2022/04/25 11:00:37;;;;;;;21.23;12.60;;;;;;;;;;5087682;28;20215;-68
2022/04/25 11:03:20;;;;;;;21.15;12.65;;;;;;;;;;5081578;28;20631;-68
2022/04/25 11:05:52;;;;;;;23.80;12.13;;;;;;;;;;5087524;28;20691;-68
2022/04/25 11:08:18;;;;;;;20.00;12.77;;;;;;;;;;5090048;28;20232;-67
2022/04/25 11:10:56;;;;;;;22.65;12.00;;;;;;;;;;5084517;28;20431;-67
2022/04/25 11:13:24;;;;;;;20.63;12.52;;;;;;;;;;5085148;28;20214;-67
2022/04/25 11:15:52;;;;;;;19.17;12.07;;;;;;;;;;5079108;28;20180;-68
2022/04/25 11:18:34;;;;;;;23.58;13.25;;;;;;;;;;5080394;28;20177;-69
2022/04/25 11:21:07;;;;;;;19.77;12.43;;;;;;;;;;5085810;28;20401;-68
2022/04/25 11:23:33;;;;;;;22.80;13.73;;;;;;;;;;5080185;28;20180;-67
2022/04/25 11:26:00;;;;;;;22.40;14.10;;;;;;;;;;5084526;28;20180;-67
2022/04/25 11:28:26;;;;;;;21.48;13.60;;;;;;;;;;5084555;28;20277;-66
2022/04/25 11:31:13;;;;;;;23.92;14.25;;;;;;;;;;5085629;28;20204;-66
2022/04/25 11:33:47;;;;;;;25.55;14.57;;;;;;;;;;5078313;28;20181;-67
2022/04/25 11:36:13;;;;;;;23.25;14.50;;;;;;;;;;5087089;28;20187;-67
2022/04/25 11:41:24;;;;;;;21.52;14.15;;;;;;;;;;5088158;28;20245;-66
2022/04/25 11:43:49;;;;;;;21.52;14.95;;;;;;;;;;5087324;28;20585;-66
2022/04/25 11:46:16;;;;;;;22.98;14.27;;;;;;;;;;5087160;28;20647;-66
2022/04/25 11:48:42;;;;;;;24.58;14.50;;;;;;;;;;5085625;28;20662;-67
2022/04/25 11:51:08;;;;;;;20.98;14.48;;;;;;;;;;5086332;28;20194;-67
2022/04/25 11:53:34;;;;;;;20.10;13.30;;;;;;;;;;5089487;28;20184;-66
2022/04/25 11:56:12;;;;;;;24.13;14.23;;;;;;;;;;5086134;28;20642;-66
2022/04/25 11:58:38;;;;;;;20.73;13.75;;;;;;;;;;5077368;28;20515;-67
2022/04/25 12:01:03;;;;;;;21.70;13.77;;;;;;;;;;5089229;28;20237;-67
2022/04/25 12:03:30;;;;;;;20.33;13.80;;;;;;;;;;5088148;28;20174;-67
2022/04/25 12:06:07;;;;;;;22.50;14.52;;;;;;;;;;5088189;28;20364;-67
2022/04/25 12:17:03;;;;;;;25.85;16.17;;;;;;;;;;5088675;28;20553;-67
2022/04/25 12:19:29;;;;;;;27.15;15.13;;;;;;;;;;5087215;28;20275;-67
2022/04/25 12:22:04;;;;;;;22.52;15.07;;;;;;;;;;5087005;28;20266;-67
2022/04/25 12:24:29;;;;;;;24.38;15.07;;;;;;;;;;5088772;28;20278;-68
2022/04/25 12:26:55;;;;;;;20.83;14.48;;;;;;;;;;5084599;28;20271;-69
2022/04/25 12:29:21;;;;;;;21.25;13.95;;;;;;;;;;5077256;28;20189;-67
2022/04/25 12:31:48;;;;;;;23.08;14.05;;;;;;;;;;5086256;28;20204;-67
2022/04/25 12:34:15;;;;;;;33.15;17.33;;;;;;;;;;5084824;28;20294;-67
2022/04/25 12:36:57;;;;;;;30.75;19.25;;;;;;;;;;5087292;28;20161;-67
2022/04/25 12:39:24;;;;;;;30.02;18.20;;;;;;;;;;5083043;28;20255;-66
2022/04/25 12:41:54;;;;;;;29.80;18.73;;;;;;;;;;5089183;28;20727;-67
2022/04/25 12:44:20;;;;;;;36.38;19.38;;;;;;;;;;5083702;28;20515;-66
2022/04/25 12:46:48;;;;;;;30.60;18.92;;;;;;;;;;5086706;28;20275;-67
2022/04/25 12:49:22;;;;;;;29.15;17.65;;;;;;;;;;5089272;28;20652;-67
2022/04/25 12:51:51;;;;;;;25.15;16.70;;;;;;;;;;5087946;28;20232;-67
2022/04/25 12:54:26;;;;;;;31.67;17.83;;;;;;;;;;5086393;28;20192;-67
2022/04/25 12:57:16;;;;;;;27.83;16.85;;;;;;;;;;5086662;28;20183;-67
2022/04/25 12:59:43;;;;;;;26.10;16.92;;;;;;;;;;5074317;28;20346;-67
2022/04/25 13:02:14;;;;;;;28.67;17.70;;;;;;;;;;5085546;28;20276;-66
2022/04/25 13:04:54;;;;;;;29.80;18.27;;;;;;;;;;5082815;28;20640;-67
2022/04/25 13:07:24;;;;;;;31.13;17.88;;;;;;;;;;5087943;28;20322;-66
2022/04/25 13:09:50;;;;;;;31.65;18.58;;;;;;;;;;5072813;28;20188;-66
2022/04/25 13:12:17;;;;;;;26.67;18.65;;;;;;;;;;5082584;28;20279;-67
2022/04/25 13:14:43;;;;;;;30.35;17.55;;;;;;;;;;5082618;28;20184;-67
2022/04/25 13:17:08;;;;;;;26.83;16.50;;;;;;;;;;5085325;28;20168;-67
2022/04/25 13:19:34;;;;;;;27.30;18.25;;;;;;;;;;5089154;28;20267;-67
2022/04/25 13:21:59;;;;;;;28.13;16.38;;;;;;;;;;5080346;28;20176;-68
2022/04/25 13:24:25;;;;;;;24.40;16.52;;;;;;;;;;5088081;28;20200;-67
2022/04/25 13:26:52;;;;;;;26.50;17.05;;;;;;;;;;5081813;28;20199;-67
2022/04/25 13:29:18;;;;;;;28.15;16.65;;;;;;;;;;5075739;28;20184;-67
2022/04/25 13:31:43;;;;;;;25.30;15.70;;;;;;;;;;5087799;28;20317;-67
2022/04/25 13:34:09;;;;;;;27.33;15.48;;;;;;;;;;5080261;28;20192;-68
2022/04/25 13:36:35;;;;;;;21.33;14.50;;;;;;;;;;5084288;28;20556;-68
2022/04/25 13:39:01;;;;;;;27.23;15.68;;;;;;;;;;5087243;28;20444;-67
2022/04/25 13:41:28;;;;;;;23.48;14.90;;;;;;;;;;5081467;28;20636;-67
2022/04/25 13:43:53;;;;;;;25.13;15.35;;;;;;;;;;5085649;28;20175;-68
2022/04/25 13:46:19;;;;;;;19.75;14.52;;;;;;;;;;5079871;28;20825;-67
2022/04/25 13:48:45;;;;;;;21.00;14.07;;;;;;;;;;5085947;28;20249;-67
2022/04/25 13:51:10;;;;;;;24.77;14.98;;;;;;;;;;5079094;28;20648;-67
2022/04/25 13:53:35;;;;;;;22.88;15.25;;;;;;;;;;5085696;28;20716;-67
2022/04/25 13:56:03;;;;;;;20.67;13.13;;;;;;;;;;5085451;28;20635;-67
2022/04/25 13:58:29;;;;;;;19.33;14.65;;;;;;;;;;5085147;28;20595;-66
2022/04/25 14:00:55;;;;;;;22.98;15.77;;;;;;;;;;5086092;28;20267;-67
2022/04/25 14:03:21;;;;;;;26.25;16.98;;;;;;;;;;5072482;28;20184;-67
2022/04/25 14:05:48;;;;;;;26.17;16.92;;;;;;;;;;5079526;28;20249;-68
2022/04/25 14:08:14;;;;;;;24.55;16.02;;;;;;;;;;5081360;28;20239;-68
2022/04/25 14:10:42;;;;;;;25.83;16.80;;;;;;;;;;5079261;28;20523;-68
2022/04/25 14:13:11;;;;;;;28.77;17.65;;;;;;;;;;5081650;28;20177;-67
2022/04/25 14:15:37;;;;;;;26.30;18.25;;;;;;;;;;5083313;28;20265;-69
2022/04/25 14:18:04;;;;;;;33.65;19.63;;;;;;;;;;5083954;28;20168;-68
2022/04/25 14:20:33;;;;;;;25.42;18.95;;;;;;;;;;5084148;28;20309;-69
2022/04/25 14:23:00;;;;;;;26.75;18.83;;;;;;;;;;5079919;28;20176;-67
2022/04/25 14:25:26;;;;;;;29.95;18.23;;;;;;;;;;5085727;28;20188;-67
2022/04/25 14:27:57;;;;;;;29.27;19.48;;;;;;;;;;5081967;28;20295;-68
2022/04/25 14:30:24;;;;;;;28.42;19.38;;;;;;;;;;5085649;28;20202;-70
2022/04/25 14:32:49;;;;;;;30.10;20.02;;;;;;;;;;5074008;28;20184;-68
2022/04/25 14:35:15;;;;;;;32.17;19.40;;;;;;;;;;5085788;28;20184;-67
2022/04/25 14:37:41;;;;;;;31.23;19.88;;;;;;;;;;5086540;28;20176;-67
2022/04/25 14:40:07;;;;;;;29.75;19.13;;;;;;;;;;5086874;28;20551;-67
2022/04/25 14:42:32;;;;;;;28.58;19.40;;;;;;;;;;5085968;28;20180;-67
2022/04/25 14:44:58;;;;;;;32.70;19.20;;;;;;;;;;5085811;28;20180;-67
2022/04/25 14:47:23;;;;;;;32.10;20.30;;;;;;;;;;5085448;28;20295;-67
2022/04/25 14:55:20;;;;;;;31.70;21.35;;;;;;;;;;5083921;28;20276;-68
2022/04/25 14:57:50;;;;;;;30.55;19.75;;;;;;;;;;5080227;28;20187;-67
2022/04/25 15:00:17;;;;;;;28.45;20.02;;;;;;;;;;5081852;28;20231;-67
2022/04/25 15:02:43;;;;;;;31.45;21.48;;;;;;;;;;5080067;28;20685;-68